createdAt,value
2022-12-17T00:00:23.198Z,101437.78
2022-12-17T00:03:52.777Z,101437.75
2022-12-17T00:07:21.695Z,101436.06
2022-12-17T00:10:42.508Z,101449.66
2022-12-17T00:14:02.911Z,101443.69
2022-12-17T00:17:26.505Z,101441.94
2022-12-17T00:20:48.687Z,101446.22
2022-12-17T00:24:11.931Z,101452.13
2022-12-17T00:27:32.240Z,101467.47
2022-12-17T00:30:52.708Z,101466.63
2022-12-17T00:34:13.519Z,101467.47
2022-12-17T00:37:35.496Z,101471.72
2022-12-17T00:40:59.128Z,101464.91
2022-12-17T00:44:24.531Z,101474.28
2022-12-17T00:47:45.294Z,101479.38
2022-12-17T00:51:05.891Z,101478.50
2022-12-17T00:54:29.936Z,101478.47
2022-12-17T00:57:50.967Z,101481.03
2022-12-17T01:01:17.266Z,101487.84
2022-12-17T01:04:40.676Z,101490.38
2022-12-17T01:08:01.335Z,101482.72
2022-12-17T01:11:26.112Z,101493.78
2022-12-17T01:14:49.062Z,101493.75
2022-12-17T01:18:11.624Z,101499.66
2022-12-17T01:21:34.496Z,101503.09
2022-12-17T01:24:56.177Z,101503.09
2022-12-17T01:28:18.248Z,101503.13
2022-12-17T01:31:41.258Z,101503.94
2022-12-17T01:35:01.738Z,101509.06
2022-12-17T01:38:41.606Z,101504.84
2022-12-17T01:42:09.375Z,101505.69
2022-12-17T01:45:34.034Z,101506.50
2022-12-17T01:49:01.159Z,101505.69
2022-12-17T01:52:22.468Z,101501.44
2022-12-17T01:55:43.310Z,101507.41
2022-12-17T01:59:05.855Z,101509.91
2022-12-17T02:02:28.089Z,101508.16
2022-12-17T02:05:57.088Z,101516.69
2022-12-17T02:09:26.931Z,101509.91
2022-12-17T02:12:56.956Z,101512.47
2022-12-17T02:16:25.009Z,101509.06
2022-12-17T02:20:00.910Z,101509.91
2022-12-17T02:23:36.966Z,101509.06
2022-12-17T02:27:03.209Z,101509.91
2022-12-17T02:30:27.019Z,101512.47
2022-12-17T02:33:48.564Z,101509.06
2022-12-17T02:37:09.185Z,101508.22
2022-12-17T02:40:32.287Z,101517.59
2022-12-17T02:43:54.793Z,101515.91
2022-12-17T02:47:18.816Z,101517.59
2022-12-17T02:50:40.076Z,101528.66
2022-12-17T02:54:23.302Z,101525.28
2022-12-17T02:57:45.790Z,101529.50
2022-12-17T03:01:09.807Z,101529.50
2022-12-17T03:04:30.839Z,101538.81
2022-12-17T03:07:51.819Z,101539.69
2022-12-17T03:11:12.347Z,101543.13
2022-12-17T03:14:33.072Z,101538.84
2022-12-17T03:17:55.257Z,101540.56
2022-12-17T03:21:24.748Z,101541.41
2022-12-17T03:24:46.744Z,101543.94
2022-12-17T03:28:07.779Z,101553.34
2022-12-17T03:31:28.199Z,101554.16
2022-12-17T03:34:50.079Z,101553.38
2022-12-17T03:38:07.157Z,101558.50
2022-12-17T03:41:28.467Z,101561.03
2022-12-17T03:44:45.535Z,101570.41
2022-12-17T03:48:05.953Z,101566.16
2022-12-17T03:51:28.073Z,101573.75
2022-12-17T03:54:49.129Z,101572.06
2022-12-17T03:58:10.342Z,101582.28
2022-12-17T04:01:31.625Z,101575.50
2022-12-17T04:04:52.701Z,101584.81
2022-12-17T04:08:16.842Z,101594.19
2022-12-17T04:11:38.078Z,101593.31
2022-12-17T04:14:59.317Z,101600.13
2022-12-17T04:18:22.354Z,101600.16
2022-12-17T04:21:43.346Z,101610.38
2022-12-17T04:25:05.365Z,101606.09
2022-12-17T04:28:25.985Z,101616.31
2022-12-17T04:31:46.807Z,101610.34
2022-12-17T04:35:07.588Z,101613.75
2022-12-17T04:38:28.407Z,101616.28
2022-12-17T04:41:52.549Z,101618.84
2022-12-17T04:45:13.920Z,101620.56
2022-12-17T04:48:38.012Z,101624.84
2022-12-17T04:52:01.391Z,101624.84
2022-12-17T04:55:22.565Z,101621.44
2022-12-17T04:58:48.171Z,101617.19
2022-12-17T05:02:09.555Z,101618.88
2022-12-17T05:05:30.748Z,101622.28
2022-12-17T05:08:51.558Z,101623.97
2022-12-17T05:12:13.312Z,101627.34
2022-12-17T05:15:38.127Z,101635.00
2022-12-17T05:19:01.987Z,101639.28
2022-12-17T05:22:22.897Z,101635.00
2022-12-17T05:25:43.789Z,101648.59
2022-12-17T05:29:04.708Z,101646.94
2022-12-17T05:32:27.765Z,101654.56
2022-12-17T05:35:53.190Z,101657.13
2022-12-17T05:39:13.984Z,101663.09
2022-12-17T05:42:34.552Z,101662.22
2022-12-17T05:45:57.477Z,101668.19
2022-12-17T05:49:22.664Z,101678.38
2022-12-17T05:52:56.903Z,101682.66
2022-12-17T05:56:17.701Z,101684.31
2022-12-17T05:59:49.847Z,101694.53
2022-12-17T06:03:17.374Z,101697.94
2022-12-17T06:06:39.263Z,101709.84
2022-12-17T06:09:59.809Z,101709.00
2022-12-17T06:13:20.534Z,101708.16
2022-12-17T06:16:41.175Z,101708.97
2022-12-17T06:20:15.852Z,101712.41
2022-12-17T06:23:52.918Z,101716.63
2022-12-17T06:27:13.650Z,101720.03
2022-12-17T06:30:45.794Z,101728.50
2022-12-17T06:34:09.869Z,101725.13
2022-12-17T06:37:30.887Z,101734.47
2022-12-17T06:40:52.674Z,101739.56
2022-12-17T06:44:18.925Z,101737.03
2022-12-17T06:47:41.988Z,101747.22
2022-12-17T06:51:03.231Z,101748.91
2022-12-17T06:54:24.046Z,101754.84
2022-12-17T06:57:50.560Z,101779.47
2022-12-17T07:01:11.838Z,101774.41
2022-12-17T07:04:35.962Z,101788.88
2022-12-17T07:07:57.220Z,101793.13
2022-12-17T07:11:18.534Z,101794.84
2022-12-17T07:14:40.634Z,101810.09
2022-12-17T07:18:03.696Z,101810.09
2022-12-17T07:21:27.740Z,101824.53
2022-12-17T07:24:48.742Z,101823.66
2022-12-17T07:28:13.402Z,101823.69
2022-12-17T07:31:45.387Z,101836.41
2022-12-17T07:35:08.288Z,101832.16
2022-12-17T07:38:30.724Z,101824.50
2022-12-17T07:41:54.789Z,101840.66
2022-12-17T07:45:15.318Z,101844.06
2022-12-17T07:48:37.538Z,101849.19
2022-12-17T07:51:58.040Z,101843.22
2022-12-17T07:55:18.566Z,101852.56
2022-12-17T07:58:39.181Z,101863.66
2022-12-17T08:02:00.139Z,101872.16
2022-12-17T08:05:22.854Z,101875.56
2022-12-17T08:08:43.589Z,101877.28
2022-12-17T08:12:04.557Z,101876.41
2022-12-17T08:15:26.362Z,101889.97
2022-12-17T08:18:47.365Z,101890.78
2022-12-17T08:22:09.592Z,101899.34
2022-12-17T08:25:30.627Z,101893.34
2022-12-17T08:28:53.746Z,101889.94
2022-12-17T08:32:14.539Z,101889.16
2022-12-17T08:35:35.547Z,101895.97
2022-12-17T08:38:57.669Z,101894.25
2022-12-17T08:42:25.284Z,101901.94
2022-12-17T08:45:46.142Z,101905.34
2022-12-17T08:49:06.671Z,101901.91
2022-12-17T08:52:27.506Z,101917.16
2022-12-17T08:55:49.639Z,101922.22
2022-12-17T08:59:10.405Z,101922.34
2022-12-17T09:02:31.138Z,101925.72
2022-12-17T09:05:52.078Z,101928.22
2022-12-17T09:09:12.983Z,101935.88
2022-12-17T09:12:35.472Z,101935.88
2022-12-17T09:15:56.129Z,101935.94
2022-12-17T09:19:17.107Z,101939.31
2022-12-17T09:22:37.939Z,101946.94
2022-12-17T09:25:58.498Z,101942.72
2022-12-17T09:29:22.729Z,101938.50
2022-12-17T09:32:43.457Z,101936.81
2022-12-17T09:36:04.219Z,101943.66
2022-12-17T09:39:24.883Z,101942.78
2022-12-17T09:42:58.248Z,101947.91
2022-12-17T09:46:28.461Z,101952.09
2022-12-17T09:49:49.522Z,101948.75
2022-12-17T09:53:25.371Z,101955.53
2022-12-17T09:56:49.986Z,101968.31
2022-12-17T10:00:13.346Z,101968.31
2022-12-17T10:03:38.918Z,101973.47
2022-12-17T10:06:59.848Z,101983.66
2022-12-17T10:10:34.948Z,101992.16
2022-12-17T10:13:55.788Z,101983.63
2022-12-17T10:17:16.651Z,101991.25
2022-12-17T10:20:43.267Z,101993.81
2022-12-17T10:24:06.559Z,101997.16
2022-12-17T10:27:29.044Z,101998.91
2022-12-17T10:30:51.167Z,102007.47
2022-12-17T10:34:20.620Z,102006.59
2022-12-17T10:37:46.431Z,102015.88
2022-12-17T10:41:18.478Z,102020.94
2022-12-17T10:44:48.477Z,102012.50
2022-12-17T10:48:09.026Z,102008.28
2022-12-17T10:51:40.310Z,102011.66
2022-12-17T10:55:05.010Z,102017.63
2022-12-17T10:58:33.646Z,102012.56
2022-12-17T11:01:58.319Z,102019.44
2022-12-17T11:05:21.892Z,102017.69
2022-12-17T11:08:45.735Z,102031.22
2022-12-17T11:12:11.106Z,102036.31
2022-12-17T11:15:44.489Z,102032.16
2022-12-17T11:19:14.897Z,102040.59
2022-12-17T11:22:50.420Z,102038.94
2022-12-17T11:26:14.568Z,102044.06
2022-12-17T11:29:36.727Z,102037.25
2022-12-17T11:33:27.012Z,102046.66
2022-12-17T11:36:56.514Z,102045.84
2022-12-17T11:40:30.642Z,102050.94
2022-12-17T11:44:00.931Z,102057.78
2022-12-17T11:47:35.999Z,102050.06
2022-12-17T11:51:03.242Z,102057.72
2022-12-17T11:54:33.421Z,102054.31
2022-12-17T11:58:08.365Z,102070.50
2022-12-17T12:01:39.559Z,102062.72
2022-12-17T12:05:29.809Z,102068.72
2022-12-17T12:08:55.474Z,102063.59
2022-12-17T12:12:24.131Z,102068.72
2022-12-17T12:15:55.305Z,102071.31
2022-12-17T12:19:25.163Z,102070.44
2022-12-17T12:22:56.868Z,102073.00
2022-12-17T12:26:27.693Z,102073.84
2022-12-17T12:29:55.526Z,102075.59
2022-12-17T12:33:36.145Z,102089.22
2022-12-17T12:37:01.692Z,102099.44
2022-12-17T12:40:33.446Z,102096.03
2022-12-17T12:43:59.654Z,102105.34
2022-12-17T12:47:28.819Z,102122.31
2022-12-17T12:51:01.014Z,102115.56
2022-12-17T12:54:42.316Z,102123.22
2022-12-17T12:58:18.587Z,102123.25
2022-12-17T13:01:51.942Z,102119.84
2022-12-17T13:05:19.771Z,102134.28
2022-12-17T13:08:29.617Z,102138.56
2022-12-17T13:11:39.180Z,102147.06
2022-12-17T13:14:53.373Z,102141.03
2022-12-17T13:18:07.977Z,102131.72
2022-12-17T13:21:27.512Z,102141.09
2022-12-17T13:24:32.535Z,102139.38
2022-12-17T13:27:40.643Z,102150.41
2022-12-17T13:30:45.018Z,102146.13
2022-12-17T13:33:57.863Z,102149.56
2022-12-17T13:37:06.710Z,102147.06
2022-12-17T13:40:26.704Z,102150.50
2022-12-17T13:43:41.531Z,102155.59
2022-12-17T13:46:51.948Z,102160.69
2022-12-17T13:50:32.269Z,102171.78
2022-12-17T13:53:23.896Z,102172.63
2022-12-17T13:56:29.346Z,102174.34
2022-12-17T13:59:32.528Z,102192.97
2022-12-17T14:02:39.385Z,102192.09
2022-12-17T14:05:46.014Z,102198.06
2022-12-17T14:08:52.358Z,102198.00
2022-12-17T14:12:13.724Z,102202.28
2022-12-17T14:15:28.587Z,102202.34
2022-12-17T14:18:33.059Z,102210.84
2022-12-17T14:21:38.452Z,102210.88
2022-12-17T14:24:41.485Z,102212.56
2022-12-17T14:27:54.544Z,102216.00
2022-12-17T14:34:41.534Z,102220.94
2022-12-17T14:37:48.280Z,102218.34
2022-12-17T14:40:54.961Z,102220.00
2022-12-17T14:43:59.902Z,102222.59
2022-12-17T14:47:16.909Z,102223.47
2022-12-17T14:50:32.107Z,102227.81
2022-12-17T14:53:36.391Z,102237.09
2022-12-17T14:56:40.109Z,102253.13
2022-12-17T14:59:43.426Z,102255.50
2022-12-17T15:02:52.886Z,102251.16
2022-12-17T15:05:59.981Z,102250.28
2022-12-17T15:09:05.488Z,102246.78
2022-12-17T15:12:08.938Z,102245.94
2022-12-17T15:15:14.682Z,102247.78
2022-12-17T15:18:20.906Z,102246.19
2022-12-17T15:21:32.804Z,102246.94
2022-12-17T15:24:36.034Z,102241.97
2022-12-17T15:27:41.910Z,102248.75
2022-12-17T15:30:45.856Z,102256.34
2022-12-17T15:33:48.886Z,102260.66
2022-12-17T15:36:53.251Z,102268.34
2022-12-17T15:39:56.996Z,102273.47
2022-12-17T15:43:12.704Z,102280.28
2022-12-17T15:46:16.351Z,102275.09
2022-12-17T15:49:19.500Z,102279.41
2022-12-17T15:52:24.281Z,102286.03
2022-12-17T15:55:27.941Z,102292.84
2022-12-17T15:58:31.531Z,102289.34
2022-12-17T16:01:35.360Z,102298.66
2022-12-17T16:04:38.979Z,102306.28
2022-12-17T16:07:44.284Z,102306.09
2022-12-17T16:10:47.291Z,102304.38
2022-12-17T16:13:55.092Z,102304.41
2022-12-17T16:16:58.476Z,102309.22
2022-12-17T16:20:01.671Z,102306.69
2022-12-17T16:23:05.975Z,102304.00
2022-12-17T16:26:11.986Z,102301.59
2022-12-17T16:29:15.313Z,102301.78
2022-12-17T16:32:18.725Z,102304.41
2022-12-17T16:35:23.692Z,102302.69
2022-12-17T16:38:28.640Z,102300.09
2022-12-17T16:41:34.186Z,102306.75
2022-12-17T16:44:37.187Z,102309.41
2022-12-17T16:47:40.154Z,102316.13
2022-12-17T16:50:43.196Z,102316.16
2022-12-17T16:53:50.422Z,102319.56
2022-12-17T16:56:54.818Z,102328.00
2022-12-17T16:59:57.825Z,102323.66
2022-12-17T17:03:01.606Z,102326.19
2022-12-17T17:06:07.698Z,102321.09
2022-12-17T17:09:13.650Z,102326.97
2022-12-17T17:12:19.055Z,102331.28
2022-12-17T17:15:23.305Z,102331.25
2022-12-17T17:18:26.842Z,102332.91
2022-12-17T17:21:35.191Z,102331.22
2022-12-17T17:24:39.626Z,102337.13
2022-12-17T17:27:45.768Z,102343.03
2022-12-17T17:30:49.402Z,102343.63
2022-12-17T17:33:55.811Z,102347.88
2022-12-17T17:36:58.812Z,102348.81
2022-12-17T17:40:03.415Z,102349.75
2022-12-17T17:43:10.549Z,102357.41
2022-12-17T17:46:17.696Z,102357.44
2022-12-17T17:49:20.761Z,102357.47
2022-12-17T18:08:39.033Z,102377.38
2022-12-17T18:11:45.113Z,102381.63
2022-12-17T18:15:12.756Z,102385.84
2022-12-17T18:18:14.684Z,102386.66
2022-12-17T18:21:23.207Z,102383.97
2022-12-17T18:24:28.169Z,102388.25
2022-12-17T18:27:32.042Z,102389.78
2022-12-17T18:30:39.153Z,102381.47
2022-12-17T18:33:45.852Z,102389.09
2022-12-17T18:36:51.134Z,102393.44
2022-12-17T18:39:56.156Z,102391.78
2022-12-17T18:43:17.625Z,102387.66
2022-12-17T18:46:23.489Z,102386.63
2022-12-17T18:49:28.183Z,102390.13
2022-12-17T18:52:32.471Z,102400.31
2022-12-17T18:55:40.789Z,102409.69
2022-12-17T18:58:45.201Z,102402.69
2022-12-17T19:01:50.006Z,102410.19
2022-12-17T19:04:53.609Z,102421.91
2022-12-17T19:07:57.275Z,102429.56
2022-12-17T19:11:07.139Z,102427.72
2022-12-17T19:14:13.526Z,102437.91
2022-12-17T19:17:16.983Z,102436.94
2022-12-17T19:20:20.779Z,102437.84
2022-12-17T19:23:26.598Z,102440.97
2022-12-17T19:26:34.491Z,102445.13
2022-12-17T19:29:39.061Z,102450.25
2022-12-17T19:32:46.135Z,102453.56
2022-12-17T19:35:49.951Z,102451.63
2022-12-17T19:38:54.783Z,102456.66
2022-12-17T19:41:59.235Z,102459.91
2022-12-17T19:45:02.461Z,102456.59
2022-12-17T19:48:05.734Z,102465.09
2022-12-17T19:51:11.222Z,102479.47
2022-12-17T19:54:15.687Z,102473.53
2022-12-17T19:57:19.990Z,102475.28
2022-12-17T20:00:23.366Z,102478.00
2022-12-17T20:03:26.416Z,102474.59
2022-12-17T20:06:33.098Z,102468.72
2022-12-17T20:09:36.096Z,102479.41
2022-12-17T20:12:40.424Z,102478.19
2022-12-17T20:15:43.460Z,102489.19
2022-12-17T20:18:46.492Z,102492.69
2022-12-17T20:21:49.990Z,102493.59
2022-12-17T20:24:53.147Z,102503.72
2022-12-17T20:27:57.975Z,102501.16
2022-12-17T20:31:01.915Z,102500.22
2022-12-17T20:34:07.358Z,102504.56
2022-12-17T20:37:10.313Z,102494.53
2022-12-17T20:40:13.517Z,102495.16
2022-12-17T20:43:17.826Z,102495.28
2022-12-17T20:46:22.529Z,102505.53
2022-12-17T20:49:25.594Z,102512.47
2022-12-17T20:52:28.629Z,102509.00
2022-12-17T20:55:31.665Z,102513.03
2022-12-17T20:58:37.243Z,102518.13
2022-12-17T21:01:40.717Z,102525.66
2022-12-17T21:04:44.411Z,102523.19
2022-12-17T21:07:47.477Z,102525.66
2022-12-17T21:10:56.861Z,102522.16
2022-12-17T21:14:04.754Z,102524.03
2022-12-17T21:17:08.043Z,102527.59
2022-12-17T21:20:12.196Z,102524.16
2022-12-17T21:23:15.458Z,102525.41
2022-12-17T21:26:21.560Z,102531.16
2022-12-17T21:29:25.915Z,102535.44
2022-12-17T21:32:33.663Z,102542.97
2022-12-17T21:35:37.077Z,102542.13
2022-12-17T21:38:40.665Z,102544.72
2022-12-17T21:42:03.370Z,102542.78
2022-12-17T21:45:09.376Z,102554.69
2022-12-17T21:48:15.237Z,102549.75
2022-12-17T21:51:18.689Z,102552.19
2022-12-17T21:54:22.017Z,102556.97
2022-12-17T21:57:25.158Z,102557.94
2022-12-17T22:00:29.590Z,102562.97
2022-12-17T22:03:32.583Z,102568.34
2022-12-17T22:06:51.429Z,102574.16
2022-12-17T22:10:33.339Z,102568.72
2022-12-17T22:13:43.048Z,102578.34
2022-12-17T22:16:49.878Z,102567.28
2022-12-17T22:19:53.211Z,102571.50
2022-12-17T22:22:56.404Z,102573.91
2022-12-17T22:26:00.422Z,102586.78
2022-12-17T22:29:04.467Z,102585.94
2022-12-17T22:32:29.087Z,102578.44
2022-12-17T22:36:52.297Z,102580.28
2022-12-17T22:42:06.228Z,102584.03
2022-12-17T22:44:49.039Z,102586.75
2022-12-17T22:46:08.682Z,102592.69
2022-12-17T22:49:13.763Z,102599.03
2022-12-17T22:52:18.240Z,102604.84
2022-12-17T22:55:23.365Z,102622.47
2022-12-17T22:58:27.662Z,102625.84
2022-12-17T23:01:32.032Z,102620.94
2022-12-17T23:04:37.207Z,102621.34
2022-12-17T23:07:41.174Z,102631.41
2022-12-17T23:10:44.870Z,102636.00
2022-12-17T23:13:48.731Z,102625.84
2022-12-17T23:16:52.569Z,102632.56
2022-12-17T23:19:57.544Z,102631.72
2022-12-17T23:23:01.713Z,102634.28
2022-12-17T23:26:09.779Z,102633.72
2022-12-17T23:29:19.754Z,102639.75
2022-12-17T23:32:23.859Z,102633.88
2022-12-17T23:35:28.810Z,102636.59
2022-12-17T23:38:34.038Z,102633.06
2022-12-17T23:41:37.616Z,102631.91
2022-12-17T23:44:41.145Z,102636.81
2022-12-17T23:47:46.008Z,102641.00
2022-12-17T23:50:50.486Z,102639.16
2022-12-17T23:54:02.710Z,102641.72
2022-12-17T23:57:06.272Z,102650.03
